Welcome to Northern Hawkes Bay. New Zealand.
PWS Header
      nz Flag



Hit Counter


W3C Valid W3C Valid logo


    Wairoa

Select any of the Stations below to visit their websites.










Historic Data from Weather Underground
Select the location of interest below. Wairoa is the default. Please have patience, this Data is slow to load in.
Northern Hawkes Bay Historical Data
Daily Summary for July 30, 2017 Units:  English    Metric   Both
« Previous Day
Next Day »
Daily Weekly Monthly Yearly Custom
  High: Low: Average:
Temperature: 54.1 °F 33.6 °F 43 °F
Dew Point: 38.8 °F 28.8 °F 34.9 °F
Humidity: 93% 56% 74%
Wind Speed: 12.1mph 0mph 4mph
Wind Gust: 19mph - -
Wind- - WNW
Pressure: 30.4 in 30.3 in -
Precipitation: 0 in    
Historical Graphs
 
 
Tabular Data for July 30, 2017
Time Temperature Dew Point Pressure Wind Wind Speed Wind Gust Humidity Rainfall Rate (Hourly) solar
00:01 45.1 °F 35.6 °F 30.3 in WSW 8.3 mph 17.4 mph 69% 0 in 0 W/m2
00:06 45 °F 35.1 °F 30.3 in WSW 9.2 mph 17.4 mph 68% 0 in 0 W/m2
00:11 45 °F 34.7 °F 30.3 in WSW 9.8 mph 17.4 mph 67% 0 in 0 W/m2
00:16 45.1 °F 34.9 °F 30.3 in WSW 6 mph 16.8 mph 67% 0 in 0 W/m2
00:21 45 °F 35.1 °F 30.3 in WSW 9.8 mph 15.9 mph 68% 0 in 0 W/m2
00:26 45.1 °F 35.6 °F 30.3 in WSW 8.3 mph 14.5 mph 69% 0 in 0 W/m2
00:31 45.1 °F 35.6 °F 30.3 in SW 9.2 mph 15.2 mph 69% 0 in 0 W/m2
00:36 45.1 °F 35.6 °F 30.3 in SW 9.8 mph 19 mph 69% 0 in 0 W/m2
00:41 45.3 °F 35.4 °F 30.3 in SW 11.4 mph 19 mph 68% 0 in 0 W/m2
00:46 45.5 °F 35.2 °F 30.3 in SW 9.8 mph 19 mph 67% 0 in 0 W/m2
00:49 45.5 °F 35.6 °F 30.3 in SW 9.2 mph 19 mph 68% 0 in 0 W/m2
00:54 45.3 °F 35.4 °F 30.3 in WSW 9.8 mph 16.8 mph 68% 0 in 0 W/m2
00:59 45.1 °F 36 °F 30.3 in WSW 9.2 mph 16.8 mph 70% 0 in 0 W/m2
01:04 45 °F 36.1 °F 30.3 in West 3.1 mph 13 mph 71% 0 in 0 W/m2
01:09 45 °F 36.1 °F 30.3 in West 7.6 mph 15.9 mph 71% 0 in 0 W/m2
01:14 45 °F 35.8 °F 30.3 in West 8.3 mph 15.9 mph 70% 0 in 0 W/m2
01:19 44.8 °F 36 °F 30.3 in West 2.2 mph 12.1 mph 71% 0 in 0 W/m2
01:24 44.6 °F 35.8 °F 30.3 in West 6.9 mph 10.7 mph 71% 0 in 0 W/m2
01:30 44.2 °F 35.8 °F 30.3 in West 3.8 mph 9.2 mph 72% 0 in 0 W/m2
01:35 42.3 °F 33.4 °F 30.3 in WNW 3.1 mph 7.6 mph 71% 0 in 0 W/m2
01:40 41.4 °F 33.1 °F 30.3 in NW 4.5 mph 7.6 mph 72% 0 in 0 W/m2
01:45 41 °F 33.4 °F 30.3 in NW 3.8 mph 7.6 mph 74% 0 in 0 W/m2
01:50 40.8 °F 33.4 °F 30.3 in NW 3.8 mph 7.6 mph 75% 0 in 0 W/m2
01:56 40.8 °F 34 °F 30.3 in NW 4.5 mph 9.8 mph 76% 0 in 0 W/m2
02:01 40.8 °F 34 °F 30.3 in NW 5.4 mph 9.2 mph 76% 0 in 0 W/m2
02:06 40.8 °F 33.4 °F 30.3 in NW 3.8 mph 9.2 mph 75% 0 in 0 W/m2
02:11 41 °F 33.4 °F 30.3 in NW 4.5 mph 8.3 mph 74% 0 in 0 W/m2
02:16 41 °F 33.4 °F 30.3 in NW 5.4 mph 8.3 mph 74% 0 in 0 W/m2
02:21 41 °F 33.1 °F 30.3 in NW 4.5 mph 7.6 mph 73% 0 in 0 W/m2
02:26 41.2 °F 33.3 °F 30.3 in NW 6.9 mph 9.2 mph 73% 0 in 0 W/m2
02:31 41.4 °F 33.1 °F 30.3 in NW 6 mph 9.2 mph 72% 0 in 0 W/m2
02:36 41.2 °F 32.9 °F 30.3 in NW 5.4 mph 8.3 mph 72% 0 in 0 W/m2
02:41 41.2 °F 32.9 °F 30.3 in NW 4.5 mph 8.3 mph 72% 0 in 0 W/m2
02:46 41 °F 33.1 °F 30.3 in NW 4.5 mph 8.3 mph 73% 0 in 0 W/m2
02:51 41 °F 33.1 °F 30.3 in NW 5.4 mph 8.3 mph 73% 0 in 0 W/m2
02:56 41 °F 32.7 °F 30.3 in NW 3.1 mph 8.3 mph 72% 0 in 0 W/m2
03:01 41.2 °F 32.9 °F 30.3 in NW 4.5 mph 8.3 mph 72% 0 in 0 W/m2
03:06 41.2 °F 32.5 °F 30.3 in NW 7.6 mph 9.8 mph 71% 0 in 0 W/m2
03:27 41 °F 32 °F 30.3 in NW 3.1 mph 8.3 mph 70% 0 in 0 W/m2
03:32 40.6 °F 32.4 °F 30.3 in NW 4.5 mph 8.3 mph 72% 0 in 0 W/m2
03:37 40.3 °F 32 °F 30.3 in NW 3.8 mph 6.9 mph 72% 0 in 0 W/m2
03:42 39.7 °F 31.8 °F 30.3 in NW 3.1 mph 6.9 mph 73% 0 in 0 W/m2
03:47 39.6 °F 31.6 °F 30.3 in NNW 1.6 mph 6.9 mph 73% 0 in 0 W/m2
03:52 39.4 °F 31.8 °F 30.3 in NW 2.2 mph 6 mph 74% 0 in 0 W/m2
03:57 39.2 °F 31.6 °F 30.3 in NNW 1.6 mph 5.4 mph 74% 0 in 0 W/m2
04:02 38.8 °F 31.6 °F 30.3 in NNW 0.7 mph 3.8 mph 75% 0 in 0 W/m2
04:07 38.5 °F 31.3 °F 30.3 in Calm   3.1 mph 75% 0 in 0 W/m2
04:12 38.1 °F 30.9 °F 30.3 in Calm   2.2 mph 75% 0 in 0 W/m2
04:17 37.4 °F 30.2 °F 30.3 in Calm   2.2 mph 75% 0 in 0 W/m2
04:22 37 °F 28.9 °F 30.3 in North 1.6 mph 3.8 mph 72% 0 in 0 W/m2
04:27 36.7 °F 28.9 °F 30.3 in NNW 2.2 mph 4.5 mph 73% 0 in 0 W/m2
04:32 36.9 °F 29.5 °F 30.3 in NNW 3.8 mph 6 mph 74% 0 in 0 W/m2
04:37 37.2 °F 30 °F 30.3 in NNW 4.5 mph 6 mph 75% 0 in 0 W/m2
04:42 37.8 °F 31.8 °F 30.3 in NW 4.5 mph 6.9 mph 79% 0 in 0 W/m2
04:47 38.1 °F 32.2 °F 30.3 in NW 3.8 mph 6.9 mph 79% 0 in 0 W/m2
04:52 38.3 °F 32.2 °F 30.3 in NW 4.5 mph 7.6 mph 78% 0 in 0 W/m2
04:57 38.5 °F 31.8 °F 30.3 in NW 3.1 mph 7.6 mph 77% 0 in 0 W/m2
05:02 38.3 °F 31.6 °F 30.3 in NW 3.8 mph 6.9 mph 77% 0 in 0 W/m2
05:07 38.3 °F 31.6 °F 30.3 in NW 4.5 mph 7.6 mph 77% 0 in 0 W/m2
05:12 38.1 °F 31.6 °F 30.3 in NW 4.5 mph 7.6 mph 77% 0 in 0 W/m2
05:17 37.9 °F 31.5 °F 30.3 in NW 3.8 mph 7.6 mph 77% 0 in 0 W/m2
05:22 37.9 °F 31.6 °F 30.3 in NW 3.1 mph 7.6 mph 78% 0 in 0 W/m2
05:38 37.6 °F 31.5 °F 30.3 in NW 3.8 mph 5.4 mph 78% 0 in 0 W/m2
05:43 37.4 °F 31.3 °F 30.3 in NW 3.1 mph 5.4 mph 78% 0 in 0 W/m2
05:49 37.4 °F 31.5 °F 30.3 in NW 3.8 mph 6 mph 79% 0 in 0 W/m2
05:54 37.4 °F 31.5 °F 30.3 in NW 3.1 mph 7.6 mph 79% 0 in 0 W/m2
05:59 37.4 °F 31.5 °F 30.3 in NW 4.5 mph 7.6 mph 79% 0 in 0 W/m2
06:04 37.6 °F 31.6 °F 30.3 in NW 3.1 mph 7.6 mph 79% 0 in 0 W/m2
06:09 37.4 °F 31.5 °F 30.3 in NW 3.1 mph 6.9 mph 79% 0 in 0 W/m2
06:14 37.2 °F 30 °F 30.3 in NW 3.1 mph 5.4 mph 75% 0 in 0 W/m2
06:19 37 °F 29.8 °F 30.3 in NNW 3.1 mph 5.4 mph 75% 0 in 0 W/m2
06:24 36.3 °F 29.1 °F 30.3 in North 2.2 mph 6 mph 75% 0 in 0 W/m2
06:29 36 °F 28.8 °F 30.3 in North 3.1 mph 6 mph 75% 0 in 0 W/m2
06:34 35.6 °F 28.8 °F 30.3 in NNW 3.1 mph 5.4 mph 76% 0 in 0 W/m2
06:39 35.4 °F 29.3 °F 30.3 in NNW 3.8 mph 6 mph 78% 0 in 0 W/m2
06:44 35.2 °F 29.5 °F 30.3 in NNW 4.5 mph 7.6 mph 79% 0 in 0 W/m2
06:49 35.2 °F 29.5 °F 30.3 in NNW 4.5 mph 7.6 mph 79% 0 in 0 W/m2
06:54 35.2 °F 29.7 °F 30.3 in North 3.1 mph 6 mph 80% 0 in 0 W/m2
06:59 35.1 °F 29.5 °F 30.3 in North 3.8 mph 5.4 mph 80% 0 in 0 W/m2
07:04 34.9 °F 29.5 °F 30.3 in NNW 2.2 mph 5.4 mph 80% 0 in 0 W/m2
07:09 34.7 °F 29.1 °F 30.3 in NW 2.2 mph 4.5 mph 80% 0 in 0 W/m2
07:14 34.3 °F 29.1 °F 30.3 in NNW 2.2 mph 4.5 mph 81% 0 in 0 W/m2
07:19 34.2 °F 28.9 °F 30.3 in NNW 2.2 mph 4.5 mph 81% 0 in 1 W/m2
07:24 33.8 °F 28.9 °F 30.3 in NNW 2.2 mph 4.5 mph 82% 0 in 3 W/m2
07:29 33.6 °F 28.9 °F 30.3 in North 2.2 mph 4.5 mph 83% 0 in 5 W/m2
07:34 33.6 °F 28.9 °F 30.3 in NNW 1.6 mph 4.5 mph 83% 0 in 12 W/m2
07:39 34 °F 29.5 °F 30.3 in North 1.6 mph 3.8 mph 83% 0 in 36 W/m2
07:44 34.9 °F 30.4 °F 30.3 in North 1.6 mph 3.8 mph 83% 0 in 46 W/m2
07:49 35.6 °F 30.7 °F 30.4 in North 2.2 mph 4.5 mph 82% 0 in 58 W/m2
07:54 36.1 °F 31.3 °F 30.4 in NNW 2.2 mph 4.5 mph 82% 0 in 67 W/m2
07:59 36.9 °F 31.6 °F 30.4 in NNW 3.1 mph 5.4 mph 81% 0 in 78 W/m2
08:04 37.4 °F 33.1 °F 30.4 in NNW 3.1 mph 5.4 mph 84% 0 in 88 W/m2
08:09 37.8 °F 32.7 °F 30.4 in NNW 3.1 mph 5.4 mph 82% 0 in 98 W/m2
08:14 37.9 °F 32.4 °F 30.4 in NNW 3.1 mph 5.4 mph 80% 0 in 107 W/m2
08:19 38.3 °F 32.4 °F 30.4 in NNW 4.5 mph 7.6 mph 79% 0 in 117 W/m2
08:24 38.8 °F 32.9 °F 30.4 in NNW 2.2 mph 7.6 mph 79% 0 in 125 W/m2
08:29 39.4 °F 32.7 °F 30.4 in North 3.1 mph 6 mph 77% 0 in 134 W/m2
08:34 39.9 °F 33.1 °F 30.4 in North 3.1 mph 6 mph 76% 0 in 142 W/m2
08:39 40.5 °F 33.4 °F 30.4 in North 3.8 mph 6 mph 76% 0 in 152 W/m2
08:44 41 °F 33.4 °F 30.4 in North 3.1 mph 6 mph 74% 0 in 161 W/m2
08:49 41.2 °F 33.3 °F 30.4 in NNW 5.4 mph 6.9 mph 73% 0 in 169 W/m2
08:54 41.4 °F 33.4 °F 30.4 in NNW 3.1 mph 6.9 mph 73% 0 in 177 W/m2
08:59 41.7 °F 33.6 °F 30.4 in NNW 3.8 mph 7.6 mph 73% 0 in 184 W/m2
09:04 41.7 °F 33.6 °F 30.4 in NNW 4.5 mph 7.6 mph 73% 0 in 192 W/m2
09:09 42.1 °F 34.2 °F 30.4 in North 5.4 mph 8.3 mph 73% 0 in 201 W/m2
09:14 42.6 °F 34.5 °F 30.4 in North 4.5 mph 8.3 mph 73% 0 in 209 W/m2
09:19 43.3 °F 34.5 °F 30.4 in NNW 5.4 mph 7.6 mph 71% 0 in 217 W/m2
09:24 43.3 °F 34.2 °F 30.4 in NNW 4.5 mph 7.6 mph 70% 0 in 227 W/m2
09:29 43.7 °F 34.5 °F 30.4 in North 6 mph 9.2 mph 70% 0 in 237 W/m2
09:34 44.2 °F 35.1 °F 30.4 in NNW 3.8 mph 9.2 mph 70% 0 in 203 W/m2
09:39 45 °F 35.1 °F 30.4 in NNW 7.6 mph 10.7 mph 68% 0 in 132 W/m2
09:44 45.5 °F 35.2 °F 30.4 in NNW 5.4 mph 10.7 mph 67% 0 in 69 W/m2
09:49 46 °F 35.2 °F 30.4 in NW 6.9 mph 10.7 mph 66% 0 in 82 W/m2
09:54 46.6 °F 35.8 °F 30.4 in NW 3.8 mph 9.8 mph 66% 0 in 69 W/m2
10:00 47.7 °F 36.9 °F 30.4 in NW 4.5 mph 9.2 mph 66% 0 in 75 W/m2
10:05 47.8 °F 36.7 °F 30.4 in WNW 4.5 mph 7.6 mph 65% 0 in 64 W/m2
10:10 48.2 °F 36.7 °F 30.4 in West 3.1 mph 9.2 mph 64% 0 in 59 W/m2
10:15 48.2 °F 36.7 °F 30.4 in West 3.1 mph 9.8 mph 64% 0 in 56 W/m2
10:20 48.4 °F 36.9 °F 30.4 in WSW 6 mph 15.2 mph 64% 0 in 56 W/m2
10:25 48 °F 36.9 °F 30.4 in WSW 3.1 mph 15.2 mph 65% 0 in 54 W/m2
10:30 48.2 °F 36.1 °F 30.4 in WSW 6 mph 12.1 mph 63% 0 in 56 W/m2
10:36 48 °F 36.9 °F 30.4 in WSW 6 mph 15.9 mph 65% 0 in 57 W/m2
10:41 48 °F 36.9 °F 30.4 in SW 5.4 mph 15.9 mph 65% 0 in 79 W/m2
10:58 49.5 °F 37.8 °F 30.4 in WSW 7.6 mph 12.1 mph 64% 0 in 254 W/m2
11:03 48.6 °F 36.9 °F 30.4 in WSW 9.2 mph 15.2 mph 64% 0 in 268 W/m2
11:08 48.6 °F 37.2 °F 30.4 in SW 12.1 mph 15.9 mph 65% 0 in 279 W/m2
11:13 48.4 °F 37.2 °F 30.4 in SW 6.9 mph 15.9 mph 65% 0 in 281 W/m2
11:23 48.7 °F 37 °F 30.4 in WSW 4.5 mph 12.1 mph 64% 0 in 284 W/m2
11:28 49.3 °F 37.6 °F 30.4 in WSW 3.8 mph 12.1 mph 64% 0 in 323 W/m2
11:33 49.5 °F 38.1 °F 30.4 in WSW 4.5 mph 13 mph 65% 0 in 153 W/m2
11:38 49.1 °F 37.6 °F 30.4 in WSW 10.7 mph 13 mph 64% 0 in 267 W/m2
11:43 49.1 °F 37.6 °F 30.4 in WSW 6 mph 14.5 mph 64% 0 in 209 W/m2
11:48 49.8 °F 38.1 °F 30.4 in WSW 9.8 mph 14.5 mph 64% 0 in 289 W/m2
11:53 49.8 °F 37.8 °F 30.4 in WSW 11.4 mph 16.8 mph 63% 0 in 283 W/m2
11:58 49.5 °F 37.8 °F 30.4 in WSW 11.4 mph 16.8 mph 64% 0 in 269 W/m2
12:03 49.6 °F 37.9 °F 30.4 in SW 5.4 mph 13.6 mph 64% 0 in 270 W/m2
12:08 50.4 °F 38.3 °F 30.4 in WSW 4.5 mph 13.6 mph 63% 0 in 284 W/m2
12:13 50.5 °F 37.6 °F 30.4 in West 7.6 mph 10.7 mph 61% 0 in 280 W/m2
12:18 50.2 °F 37.8 °F 30.4 in WSW 6 mph 13 mph 62% 0 in 158 W/m2
12:23 49.6 °F 37.6 °F 30.4 in WSW 6 mph 13 mph 63% 0 in 230 W/m2
12:28 50.2 °F 37.2 °F 30.4 in West 6.9 mph 15.2 mph 61% 0 in 209 W/m2
12:33 50.5 °F 37.6 °F 30.4 in West 9.2 mph 15.2 mph 61% 0 in 191 W/m2
12:43 50.7 °F 37.8 °F 30.4 in SW 7.6 mph 14.5 mph 61% 0 in 153 W/m2
12:48 50.9 °F 38.5 °F 30.4 in SW 7.6 mph 14.5 mph 62% 0 in 136 W/m2
12:53 50.9 °F 37.9 °F 30.4 in SW 9.2 mph 13.6 mph 61% 0 in 117 W/m2
12:58 50.5 °F 37.9 °F 30.4 in SW 6.9 mph 14.5 mph 62% 0 in 101 W/m2
13:03 50.7 °F 37.8 °F 30.4 in SW 6.9 mph 14.5 mph 61% 0 in 94 W/m2
13:08 50.5 °F 37.2 °F 30.4 in SW 7.6 mph 12.1 mph 60% 0 in 94 W/m2
13:18 50.4 °F 37 °F 30.4 in SW 5.4 mph 12.1 mph 60% 0 in 85 W/m2
13:23 50.7 °F 37.4 °F 30.4 in WSW 5.4 mph 12.1 mph 60% 0 in 73 W/m2
13:28 50.9 °F 37.6 °F 30.4 in SW 6 mph 12.1 mph 60% 0 in 66 W/m2
13:33 51.3 °F 37.9 °F 30.4 in SW 6 mph 9.8 mph 60% 0 in 63 W/m2
13:38 51.8 °F 37.9 °F 30.4 in SW 3.1 mph 9.2 mph 59% 0 in 67 W/m2
13:43 51.8 °F 37.6 °F 30.4 in WSW 3.1 mph 8.3 mph 58% 0 in 84 W/m2
13:48 52 °F 37.2 °F 30.4 in WSW 7.6 mph 9.8 mph 57% 0 in 104 W/m2
13:53 51.3 °F 37 °F 30.4 in WSW 6.9 mph 9.8 mph 58% 0 in 113 W/m2
13:58 51.6 °F 37.8 °F 30.4 in SW 6 mph 9.8 mph 59% 0 in 103 W/m2
14:03 51.8 °F 37 °F 30.4 in SW 5.4 mph 9.8 mph 57% 0 in 85 W/m2
14:08 51.4 °F 37.2 °F 30.3 in WSW 3.8 mph 9.8 mph 58% 0 in 67 W/m2
14:13 51.8 °F 37.6 °F 30.4 in WSW 4.5 mph 9.2 mph 58% 0 in 71 W/m2
14:18 51.8 °F 37.6 °F 30.4 in SW 6 mph 9.2 mph 58% 0 in 74 W/m2
14:23 51.8 °F 37.6 °F 30.4 in SW 5.4 mph 9.2 mph 58% 0 in 80 W/m2
14:28 51.8 °F 37 °F 30.4 in WSW 4.5 mph 9.2 mph 57% 0 in 86 W/m2
14:33 51.8 °F 37.6 °F 30.3 in WSW 4.5 mph 9.2 mph 58% 0 in 109 W/m2
14:38 52.2 °F 37.4 °F 30.4 in WSW 3.8 mph 9.2 mph 57% 0 in 145 W/m2
14:44 51.6 °F 37.2 °F 30.4 in SW 3.8 mph 9.8 mph 58% 0 in 171 W/m2
14:49 52.3 °F 37.9 °F 30.3 in SW 6 mph 9.8 mph 58% 0 in 158 W/m2
14:54 52.7 °F 37.9 °F 30.3 in SW 4.5 mph 8.3 mph 57% 0 in 163 W/m2
14:59 52.5 °F 37.2 °F 30.4 in SW 4.5 mph 8.3 mph 56% 0 in 187 W/m2
15:04 53.4 °F 38.7 °F 30.3 in SW 2.2 mph 7.6 mph 57% 0 in 178 W/m2
15:09 52.7 °F 37.6 °F 30.4 in SW 4.5 mph 9.2 mph 56% 0 in 163 W/m2
15:14 52.9 °F 38.5 °F 30.3 in SW 2.2 mph 9.2 mph 58% 0 in 154 W/m2
15:19 54.1 °F 38.8 °F 30.3 in SW 6.9 mph 8.3 mph 56% 0 in 149 W/m2
15:24 52.5 °F 37.8 °F 30.3 in West 3.1 mph 8.3 mph 57% 0 in 144 W/m2
15:29 52.7 °F 38.3 °F 30.4 in WSW 6 mph 8.3 mph 58% 0 in 126 W/m2
15:34 52.3 °F 37.9 °F 30.3 in WSW 2.2 mph 8.3 mph 58% 0 in 123 W/m2
15:39 53.6 °F 38.3 °F 30.3 in WNW 2.2 mph 7.6 mph 56% 0 in 127 W/m2
15:44 53.4 °F 38.7 °F 30.3 in West 3.8 mph 6.9 mph 57% 0 in 128 W/m2
15:50 53.8 °F 38.8 °F 30.4 in SW 2.2 mph 6 mph 57% 0 in 117 W/m2
15:55 53.4 °F 38.7 °F 30.4 in WSW 3.1 mph 7.6 mph 57% 0 in 116 W/m2
16:00 52.7 °F 37.6 °F 30.4 in WSW 2.2 mph 7.6 mph 56% 0 in 108 W/m2
16:05 53.2 °F 38.8 °F 30.4 in SW 3.8 mph 6.9 mph 58% 0 in 94 W/m2
16:10 53.2 °F 38.5 °F 30.4 in WSW 1.6 mph 5.4 mph 57% 0 in 81 W/m2
16:16 52.5 °F 37.2 °F 30.4 in SW 3.1 mph 6.9 mph 56% 0 in 63 W/m2
16:26 52.9 °F 38.1 °F 30.4 in WSW 3.1 mph 5.4 mph 57% 0 in 45 W/m2
16:31 52.9 °F 37.6 °F 30.4 in WSW 0.7 mph 3.8 mph 56% 0 in 43 W/m2
16:36 53.2 °F 38.5 °F 30.4 in West 2.2 mph 3.8 mph 57% 0 in 39 W/m2
16:41 52.7 °F 37.6 °F 30.4 in WSW 1.6 mph 3.8 mph 56% 0 in 35 W/m2
16:46 52.9 °F 38.5 °F 30.4 in WSW 1.6 mph 3.8 mph 58% 0 in 32 W/m2
16:51 52.2 °F 37.4 °F 30.4 in West 0.7 mph 3.8 mph 57% 0 in 28 W/m2
16:56 51.6 °F 37.2 °F 30.4 in West 0.7 mph 3.8 mph 58% 0 in 21 W/m2
17:01 51.4 °F 37.6 °F 30.4 in Calm   3.8 mph 59% 0 in 15 W/m2
17:06 50.7 °F 36.9 °F 30.4 in WNW 1.6 mph 3.1 mph 59% 0 in 8 W/m2
17:11 49.6 °F 37.2 °F 30.4 in Calm   3.1 mph 62% 0 in 3 W/m2
17:16 48.4 °F 36.3 °F 30.4 in WNW 0.7 mph 2.2 mph 63% 0 in 0 W/m2
17:21 47.3 °F 36.1 °F 30.4 in NW 0.7 mph 1.6 mph 65% 0 in 0 W/m2
17:26 46.8 °F 36 °F 30.4 in NW 0.7 mph 1.6 mph 66% 0 in 0 W/m2
17:31 46.2 °F 36.3 °F 30.4 in Calm   1.6 mph 68% 0 in 0 W/m2
17:36 45.9 °F 36.7 °F 30.4 in NW 0.7 mph 2.2 mph 70% 0 in 0 W/m2
17:41 45.3 °F 36.5 °F 30.4 in Calm   2.2 mph 71% 0 in 0 W/m2
17:46 44.8 °F 36 °F 30.4 in Calm   2.2 mph 71% 0 in 0 W/m2
17:51 44.6 °F 36.1 °F 30.4 in NW 0.7 mph 2.2 mph 72% 0 in 0 W/m2
17:52 44.6 °F 36.1 °F 30.4 in NW 1.6 mph 2.2 mph 72% 0 in 0 W/m2
17:57 44.1 °F 36.3 °F 30.4 in NW 1.6 mph 3.1 mph 74% 0 in 0 W/m2
18:02 43.7 °F 36.3 °F 30.4 in NW 1.6 mph 3.1 mph 75% 0 in 0 W/m2
18:07 43.2 °F 36.1 °F 30.4 in NW 1.6 mph 3.1 mph 76% 0 in 0 W/m2
18:12 42.8 °F 36.1 °F 30.4 in NNW 0.7 mph 2.2 mph 77% 0 in 0 W/m2
18:17 42.6 °F 36.7 °F 30.4 in North 0.7 mph 2.2 mph 79% 0 in 0 W/m2
18:22 42.3 °F 36.5 °F 30.4 in North 0.7 mph 2.2 mph 80% 0 in 0 W/m2
18:27 41.9 °F 36.5 °F 30.4 in North 1.6 mph 3.1 mph 81% 0 in 0 W/m2
18:32 41.9 °F 37 °F 30.4 in North 1.6 mph 3.1 mph 83% 0 in 0 W/m2
18:37 41.7 °F 36.9 °F 30.4 in North 1.6 mph 2.2 mph 83% 0 in 0 W/m2
18:42 41.7 °F 37.2 °F 30.4 in North 2.2 mph 3.1 mph 84% 0 in 0 W/m2
18:47 41.5 °F 37 °F 30.4 in North 1.6 mph 3.1 mph 84% 0 in 0 W/m2
18:52 41 °F 36.5 °F 30.4 in North 1.6 mph 3.1 mph 84% 0 in 0 W/m2
18:57 40.6 °F 36.5 °F 30.4 in North 0.7 mph 3.1 mph 85% 0 in 0 W/m2
19:02 40.1 °F 36.3 °F 30.4 in North 1.6 mph 3.1 mph 86% 0 in 0 W/m2
19:07 39.9 °F 36.1 °F 30.4 in NNW 1.6 mph 3.1 mph 86% 0 in 0 W/m2
19:12 39.6 °F 36 °F 30.4 in NNW 1.6 mph 3.1 mph 87% 0 in 0 W/m2
19:17 39.4 °F 35.8 °F 30.4 in NNW 2.2 mph 3.1 mph 87% 0 in 0 W/m2
19:22 39.2 °F 36 °F 30.4 in NNW 1.6 mph 3.1 mph 88% 0 in 0 W/m2
19:27 39 °F 36.1 °F 30.4 in NNW 1.6 mph 3.1 mph 89% 0 in 0 W/m2
19:32 38.8 °F 36.1 °F 30.4 in NW 3.1 mph 3.8 mph 90% 0 in 0 W/m2
19:37 38.8 °F 36.1 °F 30.4 in NW 3.1 mph 3.8 mph 90% 0 in 0 W/m2
19:42 39 °F 36.7 °F 30.4 in NW 2.2 mph 4.5 mph 91% 0 in 0 W/m2
19:47 38.8 °F 36.3 °F 30.4 in NW 1.6 mph 4.5 mph 91% 0 in 0 W/m2
19:52 38.7 °F 36.3 °F 30.4 in NW 2.2 mph 3.1 mph 91% 0 in 0 W/m2
19:57 38.7 °F 36.3 °F 30.4 in NW 2.2 mph 3.8 mph 91% 0 in 0 W/m2
20:07 38.3 °F 36.1 °F 30.4 in NNW 2.2 mph 4.5 mph 92% 0 in 0 W/m2
20:12 38.1 °F 36 °F 30.4 in NNW 3.1 mph 5.4 mph 92% 0 in 0 W/m2
20:17 38.1 °F 36 °F 30.4 in NNW 3.8 mph 5.4 mph 92% 0 in 0 W/m2
20:22 37.9 °F 35.8 °F 30.4 in NNW 3.1 mph 5.4 mph 92% 0 in 0 W/m2
20:27 37.9 °F 35.8 °F 30.4 in NNW 3.8 mph 4.5 mph 92% 0 in 0 W/m2
20:32 37.9 °F 36.1 °F 30.4 in NNW 3.8 mph 5.4 mph 93% 0 in 0 W/m2
20:37 38.1 °F 36.3 °F 30.4 in NW 3.1 mph 5.4 mph 93% 0 in 0 W/m2
20:42 38.3 °F 36.5 °F 30.4 in NW 3.8 mph 5.4 mph 93% 0 in 0 W/m2
20:47 38.5 °F 36.7 °F 30.4 in NW 3.8 mph 5.4 mph 93% 0 in 0 W/m2
20:52 38.7 °F 36.9 °F 30.4 in NNW 3.1 mph 5.4 mph 93% 0 in 0 W/m2
20:57 38.5 °F 36.7 °F 30.4 in NNW 3.8 mph 5.4 mph 93% 0 in 0 W/m2
21:02 38.1 °F 36 °F 30.4 in NNW 3.1 mph 5.4 mph 92% 0 in 0 W/m2
21:07 37.8 °F 35.8 °F 30.4 in NNW 3.8 mph 6 mph 92% 0 in 0 W/m2
21:12 37.8 °F 35.8 °F 30.4 in NW 3.1 mph 6 mph 92% 0 in 0 W/m2
21:17 37.6 °F 35.4 °F 30.4 in NW 4.5 mph 6 mph 92% 0 in 0 W/m2
21:22 37.4 °F 35.2 °F 30.4 in NW 3.8 mph 6 mph 92% 0 in 0 W/m2
21:27 37.2 °F 34 °F 30.4 in NW 3.8 mph 6 mph 88% 0 in 0 W/m2
21:32 37 °F 34.2 °F 30.4 in NW 4.5 mph 5.4 mph 89% 0 in 0 W/m2
21:37 37 °F 34.2 °F 30.4 in NW 3.8 mph 5.4 mph 89% 0 in 0 W/m2
21:42 36.7 °F 33.8 °F 30.4 in NNW 2.2 mph 5.4 mph 89% 0 in 0 W/m2
21:47 36.7 °F 33.8 °F 30.4 in NNW 3.1 mph 5.4 mph 89% 0 in 0 W/m2
21:52 36.7 °F 33.8 °F 30.4 in NW 2.2 mph 4.5 mph 89% 0 in 0 W/m2
21:57 36.7 °F 33.8 °F 30.4 in NW 3.8 mph 6 mph 89% 0 in 0 W/m2
22:02 36.5 °F 33.6 °F 30.4 in NNW 3.8 mph 6 mph 89% 0 in 0 W/m2
22:07 36.5 °F 33.6 °F 30.4 in NNW 3.1 mph 5.4 mph 89% 0 in 0 W/m2
22:12 36.3 °F 33.4 °F 30.4 in NNW 3.1 mph 5.4 mph 89% 0 in 0 W/m2
22:17 36.3 °F 33.4 °F 30.4 in NNW 3.1 mph 5.4 mph 89% 0 in 0 W/m2
22:22 36.1 °F 33.3 °F 30.4 in NNW 2.2 mph 5.4 mph 89% 0 in 0 W/m2
22:27 36.1 °F 33.3 °F 30.4 in NNW 3.8 mph 6.9 mph 89% 0 in 0 W/m2
22:32 36.3 °F 33.6 °F 30.4 in NNW 3.8 mph 6.9 mph 90% 0 in 0 W/m2
22:37 36.3 °F 33.6 °F 30.4 in NNW 3.8 mph 6.9 mph 90% 0 in 0 W/m2
22:42 36.3 °F 33.6 °F 30.4 in NNW 3.1 mph 6.9 mph 90% 0 in 0 W/m2
22:47 36.3 °F 33.6 °F 30.4 in NNW 3.1 mph 5.4 mph 90% 0 in 0 W/m2
22:52 36.3 °F 33.6 °F 30.4 in NW 3.8 mph 5.4 mph 90% 0 in 0 W/m2
22:57 36.3 °F 33.6 °F 30.4 in NNW 4.5 mph 6 mph 90% 0 in 0 W/m2
23:02 36.3 °F 33.6 °F 30.4 in NNW 3.8 mph 6 mph 90% 0 in 0 W/m2
23:07 36.3 °F 33.6 °F 30.4 in NNW 3.1 mph 6 mph 90% 0 in 0 W/m2
23:12 36.1 °F 33.4 °F 30.4 in NNW 3.8 mph 6.9 mph 90% 0 in 0 W/m2
23:17 36 °F 33.1 °F 30.4 in NNW 3.8 mph 6.9 mph 89% 0 in 0 W/m2
23:22 35.8 °F 32.9 °F 30.4 in NNW 3.8 mph 6.9 mph 89% 0 in 0 W/m2
23:27 35.8 °F 32.9 °F 30.4 in NNW 4.5 mph 6.9 mph 89% 0 in 0 W/m2
23:32 35.8 °F 32.9 °F 30.4 in NNW 3.8 mph 6.9 mph 89% 0 in 0 W/m2
23:37 35.8 °F 32.9 °F 30.4 in NNW 3.1 mph 5.4 mph 89% 0 in 0 W/m2
23:58 35.8 °F 33.1 °F 30.4 in NNW 3.1 mph 6.9 mph 90% 0 in 0 W/m2
Northern Hawkes Bay. New Zealand Historic Data
Compliments of Weather Underground - 2 mb